Weather at Denver International Airport

Public forecast

Using degrees Fahrenheit for public forecast. Weather courtesy of forecast.io.

Current aviation weather report (METAR) for Denver International Airport

Retrieved 2021/03/02 17:53 UTC (22 minutes ago):

KDEN 021753Z 00000KT 10SM CLR 12/M11 A3004 RMK AO2 SLP154 T01171106 10122 21028 58004

Aviation forecast (TAF) for Denver International Airport

Retrieved 2021/03/02 12:27 UTC (6 hours ago):

TAF KDEN 021124Z 0212/0318 22012KT P6SM SKC FM021800 27006KT P6SM SKC FM022000 VRB05KT P6SM FEW200 FM030500 20008KT P6SM FEW200